Time;durP1;ratioP1;P1;durP2;ratioP2;P2;SDS_P1;SDS_P2;PMS_P1;PMS_P2;Temp;Humidity;BMP_temperature;BMP_pressure;BME280_temperature;BME280_humidity;BME280_pressure;Samples;Min_cycle;Max_cycle;Signal;HPM_P1;HPM_P2
2020/12/12 00:02:16;;;;;;;5.85;4.35;;;7.00;67.10;;;;;;5028282;28;20029;-84
2020/12/12 00:04:41;;;;;;;6.93;5.03;;;7.10;67.10;;;;;;5028893;28;20045;-83
2020/12/12 00:07:08;;;;;;;7.25;5.05;;;7.10;67.20;;;;;;5029733;28;20416;-83
2020/12/12 00:09:34;;;;;;;7.10;5.15;;;7.10;67.10;;;;;;5028332;28;20530;-83
2020/12/12 00:11:59;;;;;;;8.55;4.68;;;7.10;67.10;;;;;;5022208;28;20145;-83
2020/12/12 00:14:25;;;;;;;6.03;4.25;;;7.10;67.00;;;;;;5025505;28;20041;-83
2020/12/12 00:16:52;;;;;;;6.82;4.50;;;7.10;66.90;;;;;;5020389;28;20407;-84
2020/12/12 00:19:17;;;;;;;6.80;4.95;;;7.10;66.80;;;;;;5008220;28;20029;-83
2020/12/12 00:21:43;;;;;;;6.25;4.65;;;7.10;66.70;;;;;;5025313;28;20034;-84
2020/12/12 00:24:08;;;;;;;6.43;4.63;;;7.10;66.60;;;;;;5029947;28;20382;-83
2020/12/12 00:26:34;;;;;;;5.68;4.00;;;7.10;66.60;;;;;;5027771;28;20036;-83
2020/12/12 00:28:59;;;;;;;6.72;4.68;;;7.10;66.60;;;;;;5022020;28;20033;-83
2020/12/12 00:31:25;;;;;;;7.32;4.88;;;7.10;66.60;;;;;;5027051;28;20033;-84
2020/12/12 00:33:50;;;;;;;4.97;3.92;;;7.00;66.60;;;;;;5026125;28;20060;-83
2020/12/12 00:36:16;;;;;;;5.85;4.32;;;7.10;66.70;;;;;;5028861;28;20025;-83
2020/12/12 00:38:42;;;;;;;6.75;4.80;;;7.00;66.70;;;;;;5030769;28;20404;-83
2020/12/12 00:41:08;;;;;;;6.80;4.57;;;7.10;66.80;;;;;;5026814;28;20720;-83
2020/12/12 00:43:34;;;;;;;6.63;4.25;;;7.00;66.70;;;;;;5025422;28;20124;-83
2020/12/12 00:46:03;;;;;;;8.40;5.10;;;7.00;66.80;;;;;;5026463;28;20038;-83
2020/12/12 00:48:29;;;;;;;8.40;5.40;;;7.00;66.80;;;;;;5009371;28;20045;-83
2020/12/12 00:50:55;;;;;;;5.90;4.47;;;7.00;66.80;;;;;;5028475;28;20095;-83
2020/12/12 00:53:20;;;;;;;6.43;4.65;;;7.00;66.90;;;;;;5027499;28;20045;-83
2020/12/12 00:55:45;;;;;;;8.60;5.18;;;7.00;66.90;;;;;;5026845;28;20071;-83
2020/12/12 00:58:11;;;;;;;8.48;5.20;;;7.00;66.90;;;;;;5028877;28;20032;-84
2020/12/12 01:00:36;;;;;;;7.22;5.38;;;7.00;66.90;;;;;;5027797;28;20042;-84
2020/12/12 01:03:03;;;;;;;7.88;5.65;;;6.90;66.80;;;;;;5008925;28;20029;-83
2020/12/12 01:05:31;;;;;;;7.18;5.10;;;7.00;66.90;;;;;;5026458;28;20044;-83
2020/12/12 01:07:57;;;;;;;8.30;5.53;;;7.00;67.00;;;;;;5027175;28;20068;-83
2020/12/12 01:10:22;;;;;;;8.75;5.57;;;7.00;67.10;;;;;;5027544;28;20448;-84
2020/12/12 01:12:48;;;;;;;7.75;5.07;;;7.00;67.20;;;;;;5024801;28;20033;-83
2020/12/12 01:15:13;;;;;;;8.80;5.60;;;7.00;67.20;;;;;;5026180;28;20064;-85
2020/12/12 01:17:39;;;;;;;8.85;6.05;;;7.00;67.30;;;;;;5027116;28;20037;-83
2020/12/12 01:20:05;;;;;;;9.32;5.78;;;7.00;67.30;;;;;;5025959;28;20033;-84
2020/12/12 01:22:30;;;;;;;10.85;7.07;;;7.00;67.40;;;;;;5007996;28;20033;-83
2020/12/12 01:24:56;;;;;;;8.18;5.75;;;7.00;67.50;;;;;;5026304;28;20037;-83
2020/12/12 01:27:21;;;;;;;9.13;6.25;;;7.00;67.50;;;;;;5027936;28;20026;-85
2020/12/12 01:29:47;;;;;;;8.27;5.75;;;7.10;68.10;;;;;;5019343;28;20297;-83
2020/12/12 01:32:13;;;;;;;9.05;5.25;;;7.10;67.60;;;;;;5025704;28;20034;-84
2020/12/12 01:34:39;;;;;;;11.40;6.50;;;7.10;67.50;;;;;;5026596;28;20030;-83
2020/12/12 01:37:04;;;;;;;9.10;5.95;;;7.10;67.50;;;;;;5028176;28;20113;-84
2020/12/12 01:39:30;;;;;;;8.90;6.43;;;7.20;67.50;;;;;;5026881;28;20040;-84
2020/12/12 01:41:55;;;;;;;8.30;6.03;;;7.20;67.60;;;;;;5023630;28;20044;-83
2020/12/12 01:44:21;;;;;;;7.40;5.20;;;7.30;67.60;;;;;;5027830;28;20030;-84
2020/12/12 01:46:48;;;;;;;9.77;6.28;;;7.20;67.50;;;;;;5024940;28;20029;-84
2020/12/12 01:49:14;;;;;;;8.85;6.25;;;7.30;67.50;;;;;;5027823;28;20029;-83
2020/12/12 01:51:42;;;;;;;7.18;5.13;;;7.30;67.50;;;;;;5020133;28;20048;-84
2020/12/12 01:54:08;;;;;;;6.85;5.10;;;7.30;67.50;;;;;;5027361;28;20037;-83
2020/12/12 01:56:34;;;;;;;8.07;5.40;;;7.40;67.60;;;;;;5026717;28;20029;-85
2020/12/12 01:59:00;;;;;;;7.03;4.97;;;7.40;67.60;;;;;;5025552;28;20034;-82
2020/12/12 02:01:28;;;;;;;8.73;5.32;;;7.40;67.60;;;;;;5028995;28;20040;-85
2020/12/12 02:03:55;;;;;;;9.95;6.18;;;7.50;67.60;;;;;;5012911;28;20420;-85
2020/12/12 02:06:21;;;;;;;7.10;5.63;;;7.70;67.70;;;;;;5019254;28;20072;-85
2020/12/12 02:08:53;;;;;;;10.32;6.82;;;7.40;67.50;;;;;;5018597;28;20453;-84
2020/12/12 02:11:20;;;;;;;8.68;5.50;;;7.50;67.50;;;;;;5017904;28;20036;-84
2020/12/12 02:13:47;;;;;;;8.20;5.57;;;7.50;67.60;;;;;;5018939;28;20064;-85
2020/12/12 02:16:16;;;;;;;8.95;5.97;;;7.60;67.60;;;;;;5020492;28;20029;-85
2020/12/12 02:18:42;;;;;;;8.70;5.93;;;7.60;67.50;;;;;;5020435;28;20040;-85
2020/12/12 02:21:08;;;;;;;9.20;5.82;;;7.50;67.50;;;;;;5017825;28;20116;-84
2020/12/12 02:23:34;;;;;;;8.98;6.18;;;7.60;67.40;;;;;;5019188;28;20560;-85
2020/12/12 02:25:59;;;;;;;8.98;6.30;;;7.60;67.40;;;;;;5022309;28;20412;-85
2020/12/12 02:28:30;;;;;;;12.65;7.25;;;7.60;67.30;;;;;;5018746;28;20041;-84
2020/12/12 02:30:55;;;;;;;10.20;6.60;;;7.60;67.30;;;;;;5019203;28;20038;-84
2020/12/12 02:33:21;;;;;;;9.48;6.60;;;7.60;67.20;;;;;;5016377;28;20036;-85
2020/12/12 02:35:46;;;;;;;9.30;6.40;;;7.60;67.20;;;;;;5018917;28;20068;-85
2020/12/12 02:38:12;;;;;;;10.45;7.10;;;7.60;67.20;;;;;;5017845;28;20408;-84
2020/12/12 02:40:38;;;;;;;10.98;7.07;;;7.60;67.20;;;;;;5016004;28;20033;-85
2020/12/12 02:43:08;;;;;;;9.75;6.50;;;7.70;67.30;;;;;;5019616;28;20038;-85
2020/12/12 02:45:33;;;;;;;11.05;7.15;;;7.60;67.20;;;;;;5018107;28;20026;-84
2020/12/12 02:47:59;;;;;;;11.73;7.57;;;7.70;67.30;;;;;;5019597;28;20423;-85
2020/12/12 02:50:26;;;;;;;11.18;7.97;;;7.70;67.30;;;;;;5017593;28;20032;-85
2020/12/12 02:52:52;;;;;;;10.00;6.82;;;7.60;67.20;;;;;;4999996;28;20400;-85
2020/12/12 02:55:19;;;;;;;8.73;6.20;;;7.60;67.30;;;;;;5020843;28;20040;-85
2020/12/12 02:57:44;;;;;;;8.55;6.60;;;7.60;67.30;;;;;;5020917;28;20061;-84
2020/12/12 03:00:13;;;;;;;12.63;8.15;;;7.60;67.30;;;;;;5020687;28;20061;-85
2020/12/12 03:02:38;;;;;;;9.60;6.80;;;7.70;67.30;;;;;;5020425;28;20073;-85
2020/12/12 03:05:05;;;;;;;9.98;7.00;;;7.70;67.30;;;;;;5019076;28;20061;-85
2020/12/12 03:07:32;;;;;;;12.32;8.63;;;7.70;67.30;;;;;;5021544;28;20091;-86
2020/12/12 03:09:58;;;;;;;10.90;7.20;;;7.70;67.30;;;;;;5022164;28;20472;-85
2020/12/12 03:12:23;;;;;;;9.45;6.60;;;7.70;67.30;;;;;;5022577;28;20084;-85
2020/12/12 03:14:49;;;;;;;10.35;6.18;;;7.70;67.40;;;;;;5025093;28;20793;-84
2020/12/12 03:17:14;;;;;;;12.00;6.63;;;7.70;67.40;;;;;;5020103;28;20022;-85
2020/12/12 03:19:40;;;;;;;11.63;7.47;;;7.70;67.40;;;;;;5022974;28;20081;-85
2020/12/12 03:22:06;;;;;;;12.77;7.32;;;7.70;67.40;;;;;;5024430;28;20025;-84
2020/12/12 03:24:32;;;;;;;9.65;6.53;;;7.70;67.30;;;;;;5021571;28;20125;-85
2020/12/12 03:26:58;;;;;;;10.70;6.82;;;7.80;67.40;;;;;;5020873;28;20033;-84
2020/12/12 03:29:23;;;;;;;12.00;8.00;;;7.70;67.40;;;;;;5023313;28;20084;-85
2020/12/12 03:31:49;;;;;;;13.57;7.70;;;7.70;67.40;;;;;;5024939;28;20037;-85
2020/12/12 03:34:14;;;;;;;13.20;8.45;;;7.70;67.40;;;;;;5026542;28;20034;-85
2020/12/12 03:36:40;;;;;;;10.00;6.70;;;7.80;67.40;;;;;;5028842;28;20093;-85
2020/12/12 03:39:06;;;;;;;9.10;6.72;;;7.70;67.40;;;;;;5029357;28;20042;-85
2020/12/12 03:41:31;;;;;;;10.82;6.40;;;7.70;67.40;;;;;;5028842;28;20164;-84
2020/12/12 03:43:57;;;;;;;8.65;6.22;;;7.70;67.30;;;;;;5028260;28;20037;-85
2020/12/12 03:46:22;;;;;;;12.27;7.20;;;7.80;67.40;;;;;;5023324;28;20113;-85
2020/12/12 03:48:48;;;;;;;12.18;7.88;;;7.80;67.40;;;;;;5030593;28;20091;-85
2020/12/12 03:51:13;;;;;;;10.27;6.72;;;7.80;67.30;;;;;;5032341;28;20030;-85
2020/12/12 03:53:39;;;;;;;9.98;6.60;;;7.70;67.20;;;;;;5030956;28;20034;-85
2020/12/12 03:56:04;;;;;;;7.57;5.70;;;7.80;67.30;;;;;;5031718;28;20381;-84
2020/12/12 03:58:30;;;;;;;8.05;5.05;;;7.80;67.30;;;;;;5025010;28;20042;-84
2020/12/12 04:00:55;;;;;;;8.05;5.97;;;7.90;67.40;;;;;;5029557;28;20056;-84
2020/12/12 04:03:21;;;;;;;8.95;6.70;;;7.70;67.30;;;;;;5030212;28;20112;-84
2020/12/12 04:05:47;;;;;;;13.45;6.70;;;7.80;67.30;;;;;;5032314;28;20118;-86
2020/12/12 04:08:14;;;;;;;10.95;7.35;;;7.80;67.30;;;;;;5025709;28;20034;-85
2020/12/12 04:10:39;;;;;;;11.25;7.85;;;7.80;67.30;;;;;;5024893;28;20033;-87
2020/12/12 04:13:05;;;;;;;10.55;7.38;;;7.80;67.30;;;;;;5026552;28;20052;-84
2020/12/12 04:15:30;;;;;;;8.45;5.70;;;7.70;67.30;;;;;;5028921;28;20488;-85
2020/12/12 04:17:56;;;;;;;9.10;6.55;;;7.70;67.30;;;;;;5029624;28;20065;-84
2020/12/12 04:20:21;;;;;;;11.27;6.30;;;7.80;67.30;;;;;;5031258;28;20108;-85
2020/12/12 04:22:47;;;;;;;9.55;6.95;;;7.70;67.30;;;;;;5029084;28;20148;-85
2020/12/12 04:25:12;;;;;;;10.93;8.00;;;7.70;67.30;;;;;;5030760;28;20029;-85
2020/12/12 04:27:38;;;;;;;12.60;8.95;;;7.70;67.30;;;;;;5010338;28;20104;-84
2020/12/12 04:30:04;;;;;;;11.23;7.38;;;7.70;67.20;;;;;;5031654;28;20504;-81
2020/12/12 04:32:30;;;;;;;9.93;6.35;;;7.70;67.20;;;;;;5031885;28;20132;-82
2020/12/12 04:34:55;;;;;;;10.27;6.63;;;7.70;67.80;;;;;;5032514;28;20519;-83
2020/12/12 04:37:21;;;;;;;10.02;7.43;;;7.70;67.30;;;;;;5033736;28;20086;-86
2020/12/12 04:39:47;;;;;;;9.00;6.38;;;7.70;67.30;;;;;;5032964;28;20029;-84
2020/12/12 04:42:15;;;;;;;11.90;7.57;;;7.70;67.30;;;;;;5031446;28;20070;-85
2020/12/12 04:44:41;;;;;;;11.30;7.10;;;7.80;67.40;;;;;;5030365;28;20511;-84
2020/12/12 04:47:07;;;;;;;10.30;7.65;;;7.60;67.30;;;;;;5029706;28;20037;-84
2020/12/12 04:49:34;;;;;;;9.70;6.95;;;7.60;67.40;;;;;;5029842;28;20033;-83
2020/12/12 04:52:03;;;;;;;9.18;6.97;;;7.60;67.50;;;;;;5033004;28;20095;-84
2020/12/12 04:54:32;;;;;;;8.40;6.38;;;7.60;67.50;;;;;;5034288;28;20032;-82
2020/12/12 04:57:00;;;;;;;9.32;6.68;;;7.60;67.50;;;;;;5031478;28;20060;-83
2020/12/12 04:59:30;;;;;;;9.88;7.03;;;7.60;67.60;;;;;;5029611;28;20041;-83
2020/12/12 05:01:58;;;;;;;10.32;7.65;;;7.60;67.60;;;;;;5032533;28;20029;-85
2020/12/12 05:04:23;;;;;;;9.05;6.35;;;7.60;67.70;;;;;;5030934;28;20037;-84
2020/12/12 05:06:49;;;;;;;7.85;6.38;;;7.60;67.70;;;;;;5016237;28;20032;-84
2020/12/12 05:09:14;;;;;;;11.00;8.15;;;7.60;67.70;;;;;;5033079;28;20048;-84
2020/12/12 05:11:43;;;;;;;12.20;7.95;;;7.80;67.90;;;;;;5033347;28;20033;-85
2020/12/12 05:14:09;;;;;;;11.40;8.00;;;7.60;67.90;;;;;;5029929;28;20050;-84
2020/12/12 05:16:35;;;;;;;9.00;6.60;;;7.50;67.80;;;;;;5035102;28;20652;-84
2020/12/12 05:19:03;;;;;;;9.45;6.38;;;7.60;67.90;;;;;;5032734;28;20041;-84
2020/12/12 05:21:28;;;;;;;9.00;6.75;;;7.70;68.00;;;;;;5031227;28;20033;-82
2020/12/12 05:23:54;;;;;;;9.55;6.78;;;7.50;67.80;;;;;;5031788;28;20030;-84
2020/12/12 05:26:20;;;;;;;7.55;6.05;;;7.60;67.90;;;;;;5033903;28;20563;-84
2020/12/12 05:28:47;;;;;;;9.68;6.93;;;7.60;67.90;;;;;;5026692;28;20045;-84
2020/12/12 05:31:12;;;;;;;10.07;6.55;;;7.60;67.90;;;;;;5033684;28;20040;-86
2020/12/12 05:33:38;;;;;;;9.63;6.70;;;7.60;67.90;;;;;;5031353;28;20045;-84
2020/12/12 05:36:03;;;;;;;10.27;6.97;;;7.50;67.90;;;;;;5034648;28;20033;-83
2020/12/12 05:38:29;;;;;;;11.80;7.75;;;7.60;67.90;;;;;;5033555;28;20021;-85
2020/12/12 05:40:55;;;;;;;11.88;8.13;;;7.60;67.90;;;;;;5035466;28;20049;-85
2020/12/12 05:43:34;;;;;;;11.30;7.20;;;7.60;67.90;;;;;;5027504;28;20147;-84
2020/12/12 05:46:00;;;;;;;10.85;6.93;;;7.50;67.90;;;;;;5025301;28;20052;-84
2020/12/12 05:48:25;;;;;;;10.63;8.00;;;7.50;67.80;;;;;;5030906;28;20136;-85
2020/12/12 05:50:51;;;;;;;13.90;8.45;;;7.50;67.80;;;;;;5032220;28;20052;-82
2020/12/12 05:53:17;;;;;;;13.18;8.43;;;7.60;67.90;;;;;;5034117;28;20049;-84
2020/12/12 05:55:45;;;;;;;9.95;7.40;;;7.60;67.90;;;;;;5032108;28;20033;-85
2020/12/12 05:58:11;;;;;;;9.75;6.35;;;7.50;67.90;;;;;;5027236;28;20029;-84
2020/12/12 06:00:38;;;;;;;10.75;7.50;;;7.50;67.90;;;;;;5033784;28;20052;-84
2020/12/12 06:03:05;;;;;;;10.40;7.72;;;7.50;68.00;;;;;;5030797;28;20041;-84
2020/12/12 06:05:33;;;;;;;10.40;7.15;;;7.50;68.00;;;;;;5030695;28;20029;-84
2020/12/12 06:08:03;;;;;;;11.07;8.02;;;7.50;67.90;;;;;;5032795;28;20040;-84
2020/12/12 06:10:30;;;;;;;11.02;7.80;;;7.50;68.00;;;;;;5027548;28;20041;-85
2020/12/12 06:12:58;;;;;;;11.88;7.43;;;7.50;68.00;;;;;;5023039;28;20117;-84
2020/12/12 06:15:34;;;;;;;10.73;7.47;;;7.50;67.90;;;;;;5032076;28;20511;-83
2020/12/12 06:18:17;;;;;;;9.82;7.15;;;7.40;67.90;;;;;;5025871;28;20030;-84
2020/12/12 06:20:44;;;;;;;10.38;6.47;;;7.50;68.10;;;;;;5032964;28;20056;-84
2020/12/12 06:23:11;;;;;;;12.05;7.47;;;7.40;67.90;;;;;;5032750;28;20075;-87
2020/12/12 06:25:36;;;;;;;10.30;6.65;;;7.40;68.00;;;;;;5030619;28;20049;-85
2020/12/12 06:28:03;;;;;;;9.32;6.82;;;7.40;68.00;;;;;;5029895;28;20033;-83
2020/12/12 06:30:31;;;;;;;12.00;8.48;;;7.40;68.10;;;;;;5028587;28;20512;-85
2020/12/12 06:33:03;;;;;;;8.77;6.60;;;7.40;68.10;;;;;;5030857;28;20063;-84
2020/12/12 06:35:33;;;;;;;10.80;7.75;;;7.40;68.20;;;;;;5031716;28;20467;-83
2020/12/12 06:38:25;;;;;;;11.68;7.97;;;7.40;68.20;;;;;;5031280;28;20025;-85
2020/12/12 06:40:53;;;;;;;10.52;7.05;;;7.40;68.40;;;;;;5005347;28;20141;-83
2020/12/12 06:43:27;;;;;;;11.80;7.63;;;7.40;68.10;;;;;;5006770;28;20042;-84
2020/12/12 06:45:52;;;;;;;11.95;7.43;;;7.40;68.20;;;;;;5008938;28;20113;-83
2020/12/12 06:48:25;;;;;;;11.02;7.40;;;7.50;68.30;;;;;;5015222;28;20049;-85
2020/12/12 06:50:52;;;;;;;12.00;8.50;;;7.40;68.30;;;;;;5004770;28;20060;-83
2020/12/12 06:53:23;;;;;;;13.25;9.02;;;7.50;68.20;;;;;;5012169;28;20030;-86
2020/12/12 06:56:07;;;;;;;;;;;7.50;68.20;;;;;;5028818;28;20089;-84
2020/12/12 06:58:33;;;;;;;11.43;7.78;;;7.40;68.40;;;;;;5028644;28;19913;-83
2020/12/12 07:00:59;;;;;;;10.80;7.50;;;7.50;67.80;;;;;;5031007;28;20112;-84
2020/12/12 07:03:25;;;;;;;11.95;8.02;;;7.40;67.80;;;;;;5032552;28;20056;-85
2020/12/12 07:06:04;;;;;;;10.70;7.03;;;7.40;67.90;;;;;;5028741;28;20045;-84
2020/12/12 07:08:31;;;;;;;11.68;7.88;;;7.40;68.20;;;;;;5035058;28;20033;-84
2020/12/12 07:10:56;;;;;;;12.60;7.85;;;7.40;68.00;;;;;;5034535;28;20037;-84
2020/12/12 07:13:22;;;;;;;10.32;7.75;;;7.40;68.00;;;;;;5030784;28;20033;-85
2020/12/12 07:15:47;;;;;;;11.63;8.13;;;7.40;68.10;;;;;;5037399;28;20029;-84
2020/12/12 07:18:13;;;;;;;10.50;7.47;;;7.40;68.00;;;;;;5035201;28;20032;-84
2020/12/12 07:20:43;;;;;;;11.50;8.10;;;7.40;68.10;;;;;;5028893;28;20454;-84
2020/12/12 07:23:09;;;;;;;12.25;7.93;;;7.40;68.10;;;;;;5034231;28;20064;-82
2020/12/12 07:25:35;;;;;;;11.00;7.90;;;7.40;68.10;;;;;;5037584;28;20033;-81
2020/12/12 07:28:02;;;;;;;11.13;7.80;;;7.40;68.10;;;;;;5034704;28;20060;-83
2020/12/12 07:30:28;;;;;;;10.63;7.13;;;7.40;68.10;;;;;;5036018;28;20060;-83
2020/12/12 07:32:53;;;;;;;9.75;6.85;;;7.40;68.20;;;;;;5034813;28;20038;-84
2020/12/12 07:35:19;;;;;;;10.13;7.30;;;7.40;68.20;;;;;;5017040;28;20116;-84
2020/12/12 07:37:44;;;;;;;9.27;7.53;;;7.40;68.20;;;;;;5036950;28;20405;-84
2020/12/12 07:40:10;;;;;;;12.20;8.63;;;7.40;68.20;;;;;;5035118;28;20040;-84
2020/12/12 07:42:36;;;;;;;11.18;7.72;;;7.50;68.20;;;;;;5030347;28;20041;-83
2020/12/12 07:47:35;;;;;;;10.35;8.02;;;7.40;68.30;;;;;;5036703;28;20027;-84
2020/12/12 07:50:03;;;;;;;11.30;8.10;;;7.40;68.20;;;;;;5036532;28;20053;-84
2020/12/12 07:52:29;;;;;;;12.38;8.25;;;7.40;68.20;;;;;;5037045;28;20048;-84
2020/12/12 07:57:23;;;;;;;13.35;9.93;;;7.40;68.20;;;;;;5035656;28;20053;-84
2020/12/12 07:59:48;;;;;;;13.55;8.45;;;7.50;68.20;;;;;;5032393;28;20026;-85
2020/12/12 08:02:14;;;;;;;11.35;7.80;;;7.40;68.10;;;;;;5032255;28;20036;-83
2020/12/12 08:04:40;;;;;;;13.40;8.50;;;7.40;68.10;;;;;;5034866;28;20041;-84
2020/12/12 08:07:20;;;;;;;9.77;7.38;;;7.40;68.10;;;;;;5037354;28;20037;-83
2020/12/12 08:09:47;;;;;;;10.75;7.65;;;7.40;68.20;;;;;;5030911;28;20075;-83
2020/12/12 08:12:31;;;;;;;11.57;9.15;;;7.40;68.10;;;;;;5035640;28;20034;-84
2020/12/12 08:15:06;;;;;;;11.68;7.78;;;7.40;68.20;;;;;;5026910;28;20076;-85
2020/12/12 08:17:33;;;;;;;12.23;8.25;;;7.40;68.20;;;;;;5014233;28;20052;-85
2020/12/12 08:19:59;;;;;;;12.40;8.40;;;7.40;68.10;;;;;;5032164;28;20042;-84
2020/12/12 08:22:25;;;;;;;11.88;8.00;;;7.40;68.10;;;;;;5033352;28;20021;-85
2020/12/12 08:24:51;;;;;;;12.15;7.95;;;7.40;68.10;;;;;;5028421;28;20047;-84
2020/12/12 08:27:23;;;;;;;11.50;7.28;;;7.40;68.10;;;;;;5033882;28;20033;-84
2020/12/12 08:29:59;;;;;;;14.27;9.07;;;7.30;68.10;;;;;;5032368;28;20036;-84
2020/12/12 08:32:36;;;;;;;12.35;8.05;;;7.40;68.10;;;;;;5035123;28;20080;-84
2020/12/12 08:35:16;;;;;;;11.00;8.00;;;7.40;68.20;;;;;;5031016;28;20065;-83
2020/12/12 08:38:04;;;;;;;11.98;7.55;;;7.40;68.30;;;;;;5016103;28;20037;-84
2020/12/12 08:40:32;;;;;;;9.60;7.13;;;7.40;68.40;;;;;;5019218;28;20034;-82
2020/12/12 08:43:05;;;;;;;12.70;7.78;;;7.40;68.30;;;;;;5010609;28;20117;-86
2020/12/12 08:45:30;;;;;;;10.30;7.35;;;7.40;68.30;;;;;;5027846;28;20090;-84
2020/12/12 08:48:15;;;;;;;11.85;7.38;;;7.40;68.40;;;;;;5034282;28;20108;-84
2020/12/12 08:50:43;;;;;;;10.38;7.40;;;7.40;68.50;;;;;;5024134;28;20041;-84
2020/12/12 08:53:28;;;;;;;9.98;7.00;;;7.40;68.40;;;;;;5006551;28;20105;-84
2020/12/12 08:55:58;;;;;;;10.52;6.97;;;7.40;69.00;;;;;;5023521;28;20488;-84
2020/12/12 08:58:37;;;;;;;8.87;7.17;;;7.40;68.40;;;;;;5029019;28;20506;-84
2020/12/12 09:01:19;;;;;;;13.43;8.25;;;7.40;68.90;;;;;;5025432;28;20269;-84
2020/12/12 09:04:03;;;;;;;12.98;8.18;;;7.50;68.50;;;;;;5029217;28;20080;-84
2020/12/12 09:06:33;;;;;;;9.80;6.82;;;7.50;68.50;;;;;;5027681;28;20499;-86
2020/12/12 09:09:27;;;;;;;12.48;8.18;;;7.50;68.40;;;;;;5027133;28;20025;-86
2020/12/12 09:11:59;;;;;;;11.82;6.85;;;7.60;68.60;;;;;;5018200;28;20038;-85
2020/12/12 09:14:27;;;;;;;9.82;6.70;;;7.60;68.50;;;;;;5019933;28;20033;-85
2020/12/12 09:17:14;;;;;;;10.02;6.40;;;7.50;68.40;;;;;;5001624;28;20025;-86
2020/12/12 09:19:39;;;;;;;11.52;7.35;;;7.60;68.50;;;;;;5022143;28;20037;-86
2020/12/12 09:22:07;;;;;;;11.77;7.40;;;7.60;68.40;;;;;;5025187;28;20033;-85
2020/12/12 09:24:32;;;;;;;11.00;7.68;;;7.60;68.30;;;;;;5025006;28;20036;-86
2020/12/12 09:26:58;;;;;;;10.77;7.47;;;7.60;68.30;;;;;;5021575;28;20489;-85
2020/12/12 09:29:25;;;;;;;9.65;6.85;;;7.70;68.30;;;;;;5025761;28;20377;-85
2020/12/12 09:31:52;;;;;;;13.73;9.07;;;7.70;68.40;;;;;;5018462;28;20045;-84
2020/12/12 09:34:18;;;;;;;11.77;8.20;;;7.70;68.30;;;;;;5029013;28;20067;-83
2020/12/12 09:36:44;;;;;;;10.82;7.32;;;7.70;68.30;;;;;;5031657;28;20032;-84
2020/12/12 09:39:10;;;;;;;11.35;7.90;;;7.70;68.30;;;;;;5028379;28;20056;-83
2020/12/12 09:41:36;;;;;;;10.80;7.20;;;7.70;68.30;;;;;;5023626;28;20500;-85
2020/12/12 09:44:01;;;;;;;12.90;8.05;;;7.70;68.30;;;;;;5018659;28;20033;-84
2020/12/12 09:46:27;;;;;;;10.38;7.18;;;7.70;68.30;;;;;;5021025;28;20034;-86
2020/12/12 09:48:52;;;;;;;13.45;8.98;;;7.80;68.40;;;;;;5024083;28;20508;-84
2020/12/12 09:51:18;;;;;;;10.63;7.18;;;7.80;68.40;;;;;;5027364;28;20049;-84
2020/12/12 09:53:45;;;;;;;14.05;9.57;;;7.80;68.30;;;;;;5026165;28;20037;-84
2020/12/12 09:56:12;;;;;;;10.57;8.50;;;7.80;68.30;;;;;;5024132;28;20032;-85
2020/12/12 09:58:38;;;;;;;10.32;7.03;;;7.80;68.30;;;;;;5024477;28;20042;-84
2020/12/12 10:01:05;;;;;;;11.70;7.70;;;7.80;68.30;;;;;;5026667;28;20089;-82
2020/12/12 10:03:31;;;;;;;10.20;7.45;;;7.80;68.30;;;;;;5008605;28;20057;-82
2020/12/12 10:05:57;;;;;;;10.32;7.32;;;7.90;68.30;;;;;;5026760;28;20056;-84
2020/12/12 10:08:22;;;;;;;10.30;7.13;;;7.90;68.30;;;;;;5029783;28;20037;-84
2020/12/12 10:10:48;;;;;;;14.00;9.93;;;7.90;68.30;;;;;;5024953;28;20064;-83
2020/12/12 10:13:13;;;;;;;9.80;7.10;;;8.00;68.30;;;;;;5020206;28;20112;-85
2020/12/12 10:15:39;;;;;;;9.82;7.63;;;8.00;68.30;;;;;;5003676;28;20045;-85
2020/12/12 10:18:08;;;;;;;14.48;9.02;;;8.00;68.20;;;;;;5024591;28;20021;-85
2020/12/12 10:20:34;;;;;;;14.70;8.85;;;8.00;68.10;;;;;;5022550;28;20087;-85
2020/12/12 10:22:59;;;;;;;13.10;9.02;;;8.00;68.10;;;;;;5023283;28;20053;-86
2020/12/12 10:25:25;;;;;;;14.55;9.02;;;8.00;68.00;;;;;;5027907;28;20033;-82
2020/12/12 10:27:50;;;;;;;14.32;9.20;;;8.10;68.00;;;;;;5024433;28;20033;-85
2020/12/12 10:30:16;;;;;;;12.65;8.85;;;8.10;68.00;;;;;;5026339;28;20089;-84
2020/12/12 10:32:42;;;;;;;12.43;8.57;;;8.00;67.90;;;;;;5025640;28;20638;-82
2020/12/12 10:35:10;;;;;;;9.80;7.28;;;8.10;67.90;;;;;;5023923;28;20022;-81
2020/12/12 10:37:36;;;;;;;9.82;7.88;;;8.10;67.90;;;;;;5024088;28;20036;-84
2020/12/12 10:40:14;;;;;;;10.90;8.02;;;8.10;68.00;;;;;;5029595;28;20068;-85
2020/12/12 10:42:39;;;;;;;13.27;8.85;;;8.00;67.90;;;;;;5018365;28;20083;-84
2020/12/12 10:45:06;;;;;;;11.73;8.55;;;8.10;67.90;;;;;;5027919;28;20029;-84
2020/12/12 10:47:32;;;;;;;11.32;8.05;;;8.10;67.90;;;;;;5033001;28;20034;-86
2020/12/12 10:49:58;;;;;;;14.60;8.70;;;8.10;67.90;;;;;;5027824;28;20395;-86
2020/12/12 10:52:24;;;;;;;10.07;7.85;;;8.10;67.90;;;;;;5029918;28;20124;-81
2020/12/12 10:54:50;;;;;;;11.00;7.20;;;8.10;68.00;;;;;;5027442;28;20075;-78
2020/12/12 10:57:16;;;;;;;9.98;7.13;;;8.10;68.00;;;;;;5026487;28;20018;-78
2020/12/12 10:59:45;;;;;;;11.35;7.95;;;8.10;68.00;;;;;;5021795;28;20072;-79
2020/12/12 11:02:12;;;;;;;11.05;7.13;;;8.10;68.00;;;;;;5024885;28;20120;-78
2020/12/12 11:04:41;;;;;;;11.02;7.03;;;8.10;68.00;;;;;;5023876;28;20041;-78
2020/12/12 11:07:07;;;;;;;8.82;6.88;;;8.10;68.00;;;;;;5025463;28;20037;-79
2020/12/12 11:09:34;;;;;;;11.60;7.47;;;8.10;68.00;;;;;;5028145;28;20404;-78
2020/12/12 11:12:00;;;;;;;9.80;7.18;;;8.20;68.00;;;;;;5021889;28;20037;-77
2020/12/12 11:14:28;;;;;;;8.88;5.70;;;8.10;67.90;;;;;;5001206;28;20161;-75
2020/12/12 11:16:54;;;;;;;10.60;7.22;;;8.10;68.00;;;;;;5023771;28;20045;-74
2020/12/12 11:19:20;;;;;;;12.07;7.80;;;8.10;68.00;;;;;;5019155;28;20034;-74
2020/12/12 11:21:45;;;;;;;9.57;6.93;;;8.20;68.10;;;;;;5025522;28;20064;-74
2020/12/12 11:24:11;;;;;;;13.05;7.45;;;8.10;68.20;;;;;;5026342;28;20034;-75
2020/12/12 11:26:36;;;;;;;11.07;7.30;;;8.20;68.30;;;;;;5026696;28;20106;-74
2020/12/12 11:29:02;;;;;;;10.43;7.35;;;8.20;68.40;;;;;;5005371;28;20037;-75
2020/12/12 11:31:28;;;;;;;8.45;6.25;;;8.20;68.40;;;;;;5018945;28;20045;-74
2020/12/12 11:34:38;;;;;;;11.27;7.15;;;8.20;68.40;;;;;;5018809;28;20508;-75
2020/12/12 11:47:11;;;;;;;8.43;5.50;;;8.30;68.30;;;;;;5026931;28;20040;-81
2020/12/12 11:49:37;;;;;;;8.68;6.07;;;8.30;68.30;;;;;;5025459;28;20049;-80
2020/12/12 11:52:03;;;;;;;9.65;7.03;;;8.30;68.30;;;;;;5025325;28;20477;-79
2020/12/12 11:54:28;;;;;;;10.15;6.78;;;8.30;68.30;;;;;;5024604;28;20032;-79
2020/12/12 11:56:54;;;;;;;10.13;8.05;;;8.40;68.40;;;;;;5023920;28;20044;-79
2020/12/12 11:59:20;;;;;;;8.75;6.68;;;8.40;68.30;;;;;;5022108;28;20056;-79
2020/12/12 12:01:45;;;;;;;9.15;6.45;;;8.40;68.30;;;;;;5024310;28;20136;-80
2020/12/12 12:04:11;;;;;;;8.40;6.13;;;8.40;68.30;;;;;;5026417;28;20033;-79
2020/12/12 12:06:37;;;;;;;9.23;7.10;;;8.40;68.30;;;;;;5024799;28;20049;-79
2020/12/12 12:11:34;;;;;;;8.65;6.40;;;8.40;68.20;;;;;;5022092;28;20037;-79
2020/12/12 12:14:08;;;;;;;10.02;6.70;;;8.50;68.20;;;;;;5023158;28;20481;-79
2020/12/12 12:16:38;;;;;;;8.75;6.25;;;8.40;68.20;;;;;;5025378;28;20541;-80
2020/12/12 12:19:15;;;;;;;7.97;5.82;;;8.40;68.20;;;;;;5015407;28;20038;-74
2020/12/12 12:21:42;;;;;;;7.70;6.22;;;8.50;68.40;;;;;;5017371;28;20804;-75
2020/12/12 12:24:10;;;;;;;9.25;6.88;;;8.50;68.50;;;;;;5021770;28;20033;-75
2020/12/12 12:26:37;;;;;;;8.80;6.55;;;8.50;68.60;;;;;;5019012;28;20039;-75
2020/12/12 12:29:12;;;;;;;8.98;6.50;;;8.60;68.70;;;;;;5020978;28;20034;-75
2020/12/12 12:31:41;;;;;;;9.73;6.35;;;8.60;68.70;;;;;;5022875;28;20048;-75
2020/12/12 12:34:07;;;;;;;8.35;5.85;;;8.60;68.70;;;;;;5020523;28;20033;-75
2020/12/12 12:36:34;;;;;;;9.40;6.20;;;8.60;68.60;;;;;;5021740;28;20022;-75
2020/12/12 12:39:01;;;;;;;9.23;6.07;;;8.70;68.70;;;;;;5023831;28;20037;-75
2020/12/12 12:41:27;;;;;;;8.88;6.38;;;8.80;68.70;;;;;;5021289;28;20038;-75
2020/12/12 12:43:54;;;;;;;8.35;5.93;;;8.80;68.80;;;;;;5026373;28;20523;-77
2020/12/12 12:46:21;;;;;;;8.23;6.13;;;8.90;68.80;;;;;;5025872;28;20029;-75
2020/12/12 12:48:48;;;;;;;8.75;5.95;;;8.90;68.70;;;;;;5025483;28;20504;-75
2020/12/12 12:51:14;;;;;;;7.82;5.80;;;8.90;68.60;;;;;;5017209;28;20068;-75
2020/12/12 12:53:39;;;;;;;8.45;6.47;;;9.00;68.60;;;;;;5017190;28;20131;-75
2020/12/12 12:56:05;;;;;;;10.00;6.70;;;9.00;68.50;;;;;;5024493;28;20030;-75
2020/12/12 12:58:30;;;;;;;8.98;5.90;;;9.10;68.40;;;;;;5020637;28;20037;-75
2020/12/12 13:00:56;;;;;;;7.80;5.90;;;9.10;68.30;;;;;;5025422;28;20033;-75
2020/12/12 13:03:22;;;;;;;10.70;6.43;;;9.10;68.30;;;;;;5016063;28;20038;-75
2020/12/12 13:05:49;;;;;;;9.15;5.95;;;9.10;68.40;;;;;;5019142;28;20030;-75
2020/12/12 13:08:15;;;;;;;9.52;6.50;;;9.20;68.40;;;;;;5025290;28;20029;-75
2020/12/12 13:10:40;;;;;;;9.15;6.32;;;9.30;68.50;;;;;;5015823;28;20046;-75
2020/12/12 13:13:07;;;;;;;9.88;6.63;;;9.30;68.50;;;;;;5022464;28;20037;-75